sensor_id;sensor_type;location;lat;lon;timestamp;temperature;humidity
60701;DHT22;46541;49.894;10.886;2023-02-15T00:01:46;2.90;99.90
60701;DHT22;46541;49.894;10.886;2023-02-15T00:04:14;2.90;99.90
60701;DHT22;46541;49.894;10.886;2023-02-15T00:06:41;2.90;99.90
60701;DHT22;46541;49.894;10.886;2023-02-15T00:09:09;2.80;99.90
60701;DHT22;46541;49.894;10.886;2023-02-15T00:11:37;2.80;99.90
60701;DHT22;46541;49.894;10.886;2023-02-15T00:14:09;2.80;99.90
60701;DHT22;46541;49.894;10.886;2023-02-15T00:16:36;2.80;99.90
60701;DHT22;46541;49.894;10.886;2023-02-15T00:19:04;2.80;99.90
60701;DHT22;46541;49.894;10.886;2023-02-15T00:21:32;2.80;99.90
60701;DHT22;46541;49.894;10.886;2023-02-15T00:24:01;2.70;99.90
60701;DHT22;46541;49.894;10.886;2023-02-15T00:26:28;2.70;99.90
60701;DHT22;46541;49.894;10.886;2023-02-15T00:28:56;2.70;99.90
60701;DHT22;46541;49.894;10.886;2023-02-15T00:31:26;2.60;99.90
60701;DHT22;46541;49.894;10.886;2023-02-15T00:33:53;2.60;99.90
60701;DHT22;46541;49.894;10.886;2023-02-15T00:36:20;2.50;99.90
60701;DHT22;46541;49.894;10.886;2023-02-15T00:38:47;2.50;99.90
60701;DHT22;46541;49.894;10.886;2023-02-15T00:41:13;2.60;99.90
60701;DHT22;46541;49.894;10.886;2023-02-15T00:43:40;2.60;99.90
60701;DHT22;46541;49.894;10.886;2023-02-15T00:46:07;2.60;99.90
60701;DHT22;46541;49.894;10.886;2023-02-15T00:48:33;2.50;99.90
60701;DHT22;46541;49.894;10.886;2023-02-15T00:51:00;2.50;99.90
60701;DHT22;46541;49.894;10.886;2023-02-15T00:53:28;2.60;99.90
60701;DHT22;46541;49.894;10.886;2023-02-15T00:55:56;2.60;99.90
60701;DHT22;46541;49.894;10.886;2023-02-15T00:58:23;2.60;99.90
60701;DHT22;46541;49.894;10.886;2023-02-15T01:00:50;2.60;99.90
60701;DHT22;46541;49.894;10.886;2023-02-15T01:03:18;2.60;99.90
60701;DHT22;46541;49.894;10.886;2023-02-15T01:05:47;2.50;99.90
60701;DHT22;46541;49.894;10.886;2023-02-15T01:08:14;2.50;99.90
60701;DHT22;46541;49.894;10.886;2023-02-15T01:10:41;2.50;99.90
60701;DHT22;46541;49.894;10.886;2023-02-15T01:13:08;2.50;99.90
60701;DHT22;46541;49.894;10.886;2023-02-15T01:15:35;2.40;99.90
60701;DHT22;46541;49.894;10.886;2023-02-15T01:18:02;2.40;99.90
60701;DHT22;46541;49.894;10.886;2023-02-15T01:20:29;2.40;99.90
60701;DHT22;46541;49.894;10.886;2023-02-15T01:22:57;2.40;99.90
60701;DHT22;46541;49.894;10.886;2023-02-15T01:25:24;2.40;99.90
60701;DHT22;46541;49.894;10.886;2023-02-15T01:27:51;2.30;99.90
60701;DHT22;46541;49.894;10.886;2023-02-15T01:30:18;2.30;99.90
60701;DHT22;46541;49.894;10.886;2023-02-15T01:32:45;2.30;99.90
60701;DHT22;46541;49.894;10.886;2023-02-15T01:35:11;2.30;99.90
60701;DHT22;46541;49.894;10.886;2023-02-15T01:37:38;2.30;99.90
60701;DHT22;46541;49.894;10.886;2023-02-15T01:40:08;2.30;99.90
60701;DHT22;46541;49.894;10.886;2023-02-15T01:42:35;2.30;99.90
60701;DHT22;46541;49.894;10.886;2023-02-15T01:45:19;2.20;99.90
60701;DHT22;46541;49.894;10.886;2023-02-15T01:47:56;2.10;99.90
60701;DHT22;46541;49.894;10.886;2023-02-15T01:50:46;2.10;99.90
60701;DHT22;46541;49.894;10.886;2023-02-15T01:53:36;2.10;99.90
60701;DHT22;46541;49.894;10.886;2023-02-15T01:56:15;2.10;99.90
60701;DHT22;46541;49.894;10.886;2023-02-15T01:58:44;2.10;99.90
60701;DHT22;46541;49.894;10.886;2023-02-15T02:01:11;2.10;99.90
60701;DHT22;46541;49.894;10.886;2023-02-15T02:03:59;2.10;99.90
60701;DHT22;46541;49.894;10.886;2023-02-15T02:06:28;2.10;99.90
60701;DHT22;46541;49.894;10.886;2023-02-15T02:08:56;2.00;99.90
60701;DHT22;46541;49.894;10.886;2023-02-15T02:11:23;2.00;99.90
60701;DHT22;46541;49.894;10.886;2023-02-15T02:13:50;1.90;99.90
60701;DHT22;46541;49.894;10.886;2023-02-15T02:46:53;2.00;99.90
60701;DHT22;46541;49.894;10.886;2023-02-15T02:49:43;1.90;99.90
60701;DHT22;46541;49.894;10.886;2023-02-15T02:55:06;1.90;99.90
60701;DHT22;46541;49.894;10.886;2023-02-15T02:57:37;1.90;99.90
60701;DHT22;46541;49.894;10.886;2023-02-15T03:00:07;2.00;99.90
60701;DHT22;46541;49.894;10.886;2023-02-15T03:02:39;1.90;99.90
60701;DHT22;46541;49.894;10.886;2023-02-15T03:05:12;1.90;99.90
60701;DHT22;46541;49.894;10.886;2023-02-15T03:07:41;1.90;99.90
60701;DHT22;46541;49.894;10.886;2023-02-15T03:10:09;1.90;99.90
60701;DHT22;46541;49.894;10.886;2023-02-15T03:12:39;1.90;99.90
60701;DHT22;46541;49.894;10.886;2023-02-15T03:15:20;1.90;99.90
60701;DHT22;46541;49.894;10.886;2023-02-15T03:17:53;1.90;99.90
60701;DHT22;46541;49.894;10.886;2023-02-15T03:20:26;1.90;99.90
60701;DHT22;46541;49.894;10.886;2023-02-15T03:22:59;1.90;99.90
60701;DHT22;46541;49.894;10.886;2023-02-15T03:25:46;1.90;99.90
60701;DHT22;46541;49.894;10.886;2023-02-15T03:28:19;1.90;99.90
60701;DHT22;46541;49.894;10.886;2023-02-15T03:30:52;1.90;99.90
60701;DHT22;46541;49.894;10.886;2023-02-15T03:33:20;1.90;99.90
60701;DHT22;46541;49.894;10.886;2023-02-15T03:38:22;1.90;99.90
60701;DHT22;46541;49.894;10.886;2023-02-15T03:40:53;1.90;99.90
60701;DHT22;46541;49.894;10.886;2023-02-15T03:44:08;1.90;99.90
60701;DHT22;46541;49.894;10.886;2023-02-15T03:49:26;1.90;99.90
60701;DHT22;46541;49.894;10.886;2023-02-15T03:51:56;2.00;99.90
60701;DHT22;46541;49.894;10.886;2023-02-15T03:54:34;2.00;99.90
60701;DHT22;46541;49.894;10.886;2023-02-15T03:57:18;1.90;99.90
60701;DHT22;46541;49.894;10.886;2023-02-15T04:00:13;1.90;99.90
60701;DHT22;46541;49.894;10.886;2023-02-15T04:05:37;1.80;99.90
60701;DHT22;46541;49.894;10.886;2023-02-15T04:08:05;1.80;99.90
60701;DHT22;46541;49.894;10.886;2023-02-15T04:10:32;1.90;99.90
60701;DHT22;46541;49.894;10.886;2023-02-15T04:13:21;1.80;99.90
60701;DHT22;46541;49.894;10.886;2023-02-15T04:15:49;1.80;99.90
60701;DHT22;46541;49.894;10.886;2023-02-15T04:18:42;1.80;99.90
60701;DHT22;46541;49.894;10.886;2023-02-15T04:21:30;1.70;99.90
60701;DHT22;46541;49.894;10.886;2023-02-15T04:24:15;1.70;99.90
60701;DHT22;46541;49.894;10.886;2023-02-15T04:27:02;1.70;99.90
60701;DHT22;46541;49.894;10.886;2023-02-15T04:29:30;1.70;99.90
60701;DHT22;46541;49.894;10.886;2023-02-15T04:31:58;1.70;99.90
60701;DHT22;46541;49.894;10.886;2023-02-15T04:34:26;1.80;99.90
60701;DHT22;46541;49.894;10.886;2023-02-15T04:36:53;1.80;99.90
60701;DHT22;46541;49.894;10.886;2023-02-15T04:39:20;1.90;99.90
60701;DHT22;46541;49.894;10.886;2023-02-15T04:41:46;1.90;99.90
60701;DHT22;46541;49.894;10.886;2023-02-15T04:44:14;1.80;99.90
60701;DHT22;46541;49.894;10.886;2023-02-15T04:46:41;1.80;99.90
60701;DHT22;46541;49.894;10.886;2023-02-15T04:49:08;1.80;99.90
60701;DHT22;46541;49.894;10.886;2023-02-15T04:51:35;1.70;99.90
60701;DHT22;46541;49.894;10.886;2023-02-15T04:54:02;1.70;99.90
60701;DHT22;46541;49.894;10.886;2023-02-15T04:56:28;1.70;99.90
60701;DHT22;46541;49.894;10.886;2023-02-15T04:58:56;1.70;99.90
60701;DHT22;46541;49.894;10.886;2023-02-15T05:01:23;1.70;99.90
60701;DHT22;46541;49.894;10.886;2023-02-15T05:03:50;1.70;99.90
60701;DHT22;46541;49.894;10.886;2023-02-15T05:06:16;1.60;99.90
60701;DHT22;46541;49.894;10.886;2023-02-15T05:08:43;1.60;99.90
60701;DHT22;46541;49.894;10.886;2023-02-15T05:11:10;1.70;99.90
60701;DHT22;46541;49.894;10.886;2023-02-15T05:13:37;1.70;99.90
60701;DHT22;46541;49.894;10.886;2023-02-15T05:16:03;1.70;99.90
60701;DHT22;46541;49.894;10.886;2023-02-15T05:18:30;1.70;99.90
60701;DHT22;46541;49.894;10.886;2023-02-15T05:20:57;1.70;99.90
60701;DHT22;46541;49.894;10.886;2023-02-15T05:23:24;1.70;99.90
60701;DHT22;46541;49.894;10.886;2023-02-15T05:25:51;1.70;99.90
60701;DHT22;46541;49.894;10.886;2023-02-15T05:28:37;1.60;99.90
60701;DHT22;46541;49.894;10.886;2023-02-15T05:31:10;1.60;99.90
60701;DHT22;46541;49.894;10.886;2023-02-15T05:33:38;1.70;99.90
60701;DHT22;46541;49.894;10.886;2023-02-15T05:36:06;1.70;99.90
60701;DHT22;46541;49.894;10.886;2023-02-15T05:38:34;1.70;99.90
60701;DHT22;46541;49.894;10.886;2023-02-15T05:41:00;1.70;99.90
60701;DHT22;46541;49.894;10.886;2023-02-15T05:43:28;1.70;99.90
60701;DHT22;46541;49.894;10.886;2023-02-15T05:45:55;1.70;99.90
60701;DHT22;46541;49.894;10.886;2023-02-15T05:48:24;1.70;99.90
60701;DHT22;46541;49.894;10.886;2023-02-15T05:50:59;1.80;99.90
60701;DHT22;46541;49.894;10.886;2023-02-15T05:53:27;1.80;99.90
60701;DHT22;46541;49.894;10.886;2023-02-15T05:55:54;1.70;99.90
60701;DHT22;46541;49.894;10.886;2023-02-15T05:58:27;1.70;99.90
60701;DHT22;46541;49.894;10.886;2023-02-15T06:00:54;1.70;99.90
60701;DHT22;46541;49.894;10.886;2023-02-15T06:03:21;1.70;99.90
60701;DHT22;46541;49.894;10.886;2023-02-15T06:05:49;1.70;99.90
60701;DHT22;46541;49.894;10.886;2023-02-15T06:08:15;1.60;99.90
60701;DHT22;46541;49.894;10.886;2023-02-15T06:10:42;1.60;99.90
60701;DHT22;46541;49.894;10.886;2023-02-15T06:13:09;1.50;99.90
60701;DHT22;46541;49.894;10.886;2023-02-15T06:15:35;1.50;99.90
60701;DHT22;46541;49.894;10.886;2023-02-15T06:18:02;1.50;99.90
60701;DHT22;46541;49.894;10.886;2023-02-15T06:20:29;1.50;99.90
60701;DHT22;46541;49.894;10.886;2023-02-15T06:22:56;1.50;99.90
60701;DHT22;46541;49.894;10.886;2023-02-15T06:25:22;1.50;99.90
60701;DHT22;46541;49.894;10.886;2023-02-15T06:27:50;1.50;99.90
60701;DHT22;46541;49.894;10.886;2023-02-15T06:30:17;1.50;99.90
60701;DHT22;46541;49.894;10.886;2023-02-15T06:32:44;1.50;99.90
60701;DHT22;46541;49.894;10.886;2023-02-15T06:35:11;1.50;99.90
60701;DHT22;46541;49.894;10.886;2023-02-15T06:37:38;1.50;99.90
60701;DHT22;46541;49.894;10.886;2023-02-15T06:40:05;1.50;99.90
60701;DHT22;46541;49.894;10.886;2023-02-15T06:42:32;1.50;99.90
60701;DHT22;46541;49.894;10.886;2023-02-15T06:44:59;1.50;99.90
60701;DHT22;46541;49.894;10.886;2023-02-15T06:47:26;1.60;99.90
60701;DHT22;46541;49.894;10.886;2023-02-15T06:49:53;1.60;99.90
60701;DHT22;46541;49.894;10.886;2023-02-15T06:52:20;1.60;99.90
60701;DHT22;46541;49.894;10.886;2023-02-15T06:54:47;1.60;99.90
60701;DHT22;46541;49.894;10.886;2023-02-15T06:57:13;1.50;99.90
60701;DHT22;46541;49.894;10.886;2023-02-15T06:59:40;1.60;99.90
60701;DHT22;46541;49.894;10.886;2023-02-15T07:02:08;1.60;99.90
60701;DHT22;46541;49.894;10.886;2023-02-15T07:04:35;1.60;99.90
60701;DHT22;46541;49.894;10.886;2023-02-15T07:07:02;1.60;99.90
60701;DHT22;46541;49.894;10.886;2023-02-15T07:09:29;1.70;99.90
60701;DHT22;46541;49.894;10.886;2023-02-15T07:11:56;1.60;99.90
60701;DHT22;46541;49.894;10.886;2023-02-15T07:14:41;1.60;99.90
60701;DHT22;46541;49.894;10.886;2023-02-15T07:17:08;1.70;99.90
60701;DHT22;46541;49.894;10.886;2023-02-15T07:19:55;1.60;99.90
60701;DHT22;46541;49.894;10.886;2023-02-15T07:22:21;1.60;99.90
60701;DHT22;46541;49.894;10.886;2023-02-15T07:24:48;1.60;99.90
60701;DHT22;46541;49.894;10.886;2023-02-15T07:27:15;1.60;99.90
60701;DHT22;46541;49.894;10.886;2023-02-15T07:29:42;1.60;99.90
60701;DHT22;46541;49.894;10.886;2023-02-15T07:32:09;1.70;99.90
60701;DHT22;46541;49.894;10.886;2023-02-15T07:34:36;1.70;99.90
60701;DHT22;46541;49.894;10.886;2023-02-15T07:37:02;1.70;99.90
60701;DHT22;46541;49.894;10.886;2023-02-15T07:39:29;1.70;99.90
60701;DHT22;46541;49.894;10.886;2023-02-15T07:41:56;1.80;99.90
60701;DHT22;46541;49.894;10.886;2023-02-15T07:44:23;1.80;99.90
60701;DHT22;46541;49.894;10.886;2023-02-15T07:46:49;1.80;99.90
60701;DHT22;46541;49.894;10.886;2023-02-15T07:49:16;1.70;99.90
60701;DHT22;46541;49.894;10.886;2023-02-15T07:51:43;1.80;99.90
60701;DHT22;46541;49.894;10.886;2023-02-15T07:54:09;1.70;99.90
60701;DHT22;46541;49.894;10.886;2023-02-15T07:56:36;1.70;99.90
60701;DHT22;46541;49.894;10.886;2023-02-15T07:59:03;1.70;99.90
60701;DHT22;46541;49.894;10.886;2023-02-15T08:01:34;1.80;99.90
60701;DHT22;46541;49.894;10.886;2023-02-15T08:04:02;1.80;99.90
60701;DHT22;46541;49.894;10.886;2023-02-15T08:06:32;1.80;99.90
60701;DHT22;46541;49.894;10.886;2023-02-15T08:08:59;1.80;99.90
60701;DHT22;46541;49.894;10.886;2023-02-15T08:11:29;1.80;99.90
60701;DHT22;46541;49.894;10.886;2023-02-15T08:14:18;1.80;99.90
60701;DHT22;46541;49.894;10.886;2023-02-15T08:16:52;1.80;99.90
60701;DHT22;46541;49.894;10.886;2023-02-15T08:19:25;1.80;99.90
60701;DHT22;46541;49.894;10.886;2023-02-15T08:21:57;1.80;99.90
60701;DHT22;46541;49.894;10.886;2023-02-15T08:24:27;1.80;99.90
60701;DHT22;46541;49.894;10.886;2023-02-15T08:26:54;1.90;99.90
60701;DHT22;46541;49.894;10.886;2023-02-15T08:29:24;2.00;99.90
60701;DHT22;46541;49.894;10.886;2023-02-15T08:32:11;2.00;99.90
60701;DHT22;46541;49.894;10.886;2023-02-15T08:34:40;2.00;99.90
60701;DHT22;46541;49.894;10.886;2023-02-15T08:37:08;2.00;99.90
60701;DHT22;46541;49.894;10.886;2023-02-15T08:39:35;2.00;99.90
60701;DHT22;46541;49.894;10.886;2023-02-15T08:42:02;2.00;99.90
60701;DHT22;46541;49.894;10.886;2023-02-15T08:44:29;2.00;99.90
60701;DHT22;46541;49.894;10.886;2023-02-15T08:46:56;2.10;99.90
60701;DHT22;46541;49.894;10.886;2023-02-15T08:49:29;2.00;99.90
60701;DHT22;46541;49.894;10.886;2023-02-15T08:51:55;2.00;99.90
60701;DHT22;46541;49.894;10.886;2023-02-15T08:54:22;2.00;99.90
60701;DHT22;46541;49.894;10.886;2023-02-15T08:56:49;2.00;99.90
60701;DHT22;46541;49.894;10.886;2023-02-15T08:59:22;2.10;99.90
60701;DHT22;46541;49.894;10.886;2023-02-15T09:01:51;2.10;99.90
60701;DHT22;46541;49.894;10.886;2023-02-15T09:04:20;2.10;99.90
60701;DHT22;46541;49.894;10.886;2023-02-15T09:06:48;2.10;99.90
60701;DHT22;46541;49.894;10.886;2023-02-15T09:09:17;2.10;99.90
60701;DHT22;46541;49.894;10.886;2023-02-15T09:11:46;2.20;99.90
60701;DHT22;46541;49.894;10.886;2023-02-15T09:14:17;2.20;99.90
60701;DHT22;46541;49.894;10.886;2023-02-15T09:16:47;2.20;99.90
60701;DHT22;46541;49.894;10.886;2023-02-15T09:19:19;2.20;99.90
60701;DHT22;46541;49.894;10.886;2023-02-15T09:21:46;2.30;99.90
60701;DHT22;46541;49.894;10.886;2023-02-15T09:24:15;2.30;99.90
60701;DHT22;46541;49.894;10.886;2023-02-15T09:26:44;2.30;99.90
60701;DHT22;46541;49.894;10.886;2023-02-15T09:29:12;2.30;99.90
60701;DHT22;46541;49.894;10.886;2023-02-15T09:31:41;2.30;99.90
60701;DHT22;46541;49.894;10.886;2023-02-15T09:34:15;2.30;99.90
60701;DHT22;46541;49.894;10.886;2023-02-15T09:36:45;2.40;99.90
60701;DHT22;46541;49.894;10.886;2023-02-15T09:39:14;2.40;99.90
60701;DHT22;46541;49.894;10.886;2023-02-15T09:48:11;2.60;99.90
60701;DHT22;46541;49.894;10.886;2023-02-15T09:53:57;2.60;99.90
60701;DHT22;46541;49.894;10.886;2023-02-15T09:56:31;2.50;99.90
60701;DHT22;46541;49.894;10.886;2023-02-15T10:02:25;2.60;99.90
60701;DHT22;46541;49.894;10.886;2023-02-15T10:05:10;2.60;99.90
60701;DHT22;46541;49.894;10.886;2023-02-15T10:13:11;2.70;99.90
60701;DHT22;46541;49.894;10.886;2023-02-15T10:15:52;2.70;99.90
60701;DHT22;46541;49.894;10.886;2023-02-15T10:21:45;2.80;99.90
60701;DHT22;46541;49.894;10.886;2023-02-15T10:27:18;2.90;99.90
60701;DHT22;46541;49.894;10.886;2023-02-15T10:29:59;2.90;99.90
60701;DHT22;46541;49.894;10.886;2023-02-15T10:32:31;3.00;99.90
60701;DHT22;46541;49.894;10.886;2023-02-15T10:38:15;2.90;99.90
60701;DHT22;46541;49.894;10.886;2023-02-15T10:46:43;3.00;99.90
60701;DHT22;46541;49.894;10.886;2023-02-15T10:54:45;3.20;99.90
60701;DHT22;46541;49.894;10.886;2023-02-15T10:57:27;3.20;99.90
60701;DHT22;46541;49.894;10.886;2023-02-15T11:03:01;3.30;99.90
60701;DHT22;46541;49.894;10.886;2023-02-15T11:08:16;3.30;99.90
60701;DHT22;46541;49.894;10.886;2023-02-15T11:10:52;3.30;99.90
60701;DHT22;46541;49.894;10.886;2023-02-15T11:13:24;3.20;99.90
60701;DHT22;46541;49.894;10.886;2023-02-15T11:15:57;3.20;99.90
60701;DHT22;46541;49.894;10.886;2023-02-15T11:18:39;3.30;99.90
60701;DHT22;46541;49.894;10.886;2023-02-15T11:23:55;3.30;99.90
60701;DHT22;46541;49.894;10.886;2023-02-15T11:26:34;3.20;99.90
60701;DHT22;46541;49.894;10.886;2023-02-15T11:31:57;3.30;99.90
60701;DHT22;46541;49.894;10.886;2023-02-15T11:34:38;3.40;99.90
60701;DHT22;46541;49.894;10.886;2023-02-15T11:37:11;3.40;99.90
60701;DHT22;46541;49.894;10.886;2023-02-15T11:39:40;3.50;99.90
60701;DHT22;46541;49.894;10.886;2023-02-15T11:42:14;3.50;99.90
60701;DHT22;46541;49.894;10.886;2023-02-15T11:45:04;3.60;99.90
60701;DHT22;46541;49.894;10.886;2023-02-15T11:47:34;3.60;99.90
60701;DHT22;46541;49.894;10.886;2023-02-15T11:50:00;3.60;99.90
60701;DHT22;46541;49.894;10.886;2023-02-15T11:52:27;3.60;99.90
60701;DHT22;46541;49.894;10.886;2023-02-15T11:54:54;3.70;99.90
60701;DHT22;46541;49.894;10.886;2023-02-15T11:57:33;3.60;99.90
60701;DHT22;46541;49.894;10.886;2023-02-15T12:02:32;3.70;99.90
60701;DHT22;46541;49.894;10.886;2023-02-15T12:05:03;3.70;99.90
60701;DHT22;46541;49.894;10.886;2023-02-15T12:07:35;3.70;99.90
60701;DHT22;46541;49.894;10.886;2023-02-15T12:10:25;3.70;99.90
60701;DHT22;46541;49.894;10.886;2023-02-15T12:13:13;3.70;99.90
60701;DHT22;46541;49.894;10.886;2023-02-15T12:15:46;3.70;99.90
60701;DHT22;46541;49.894;10.886;2023-02-15T12:18:42;3.90;99.90
60701;DHT22;46541;49.894;10.886;2023-02-15T12:21:31;4.00;99.90
60701;DHT22;46541;49.894;10.886;2023-02-15T12:24:20;4.10;99.90
60701;DHT22;46541;49.894;10.886;2023-02-15T12:27:18;4.20;99.90
60701;DHT22;46541;49.894;10.886;2023-02-15T12:29:55;4.20;99.90
60701;DHT22;46541;49.894;10.886;2023-02-15T12:32:31;4.20;99.90
60701;DHT22;46541;49.894;10.886;2023-02-15T12:35:47;4.30;99.90
60701;DHT22;46541;49.894;10.886;2023-02-15T12:37:54;4.30;99.90
60701;DHT22;46541;49.894;10.886;2023-02-15T12:40:27;4.40;99.90
60701;DHT22;46541;49.894;10.886;2023-02-15T12:42:57;4.40;99.90
60701;DHT22;46541;49.894;10.886;2023-02-15T12:45:28;4.40;99.90
60701;DHT22;46541;49.894;10.886;2023-02-15T12:50:40;4.60;99.90
60701;DHT22;46541;49.894;10.886;2023-02-15T12:53:20;4.60;99.90
60701;DHT22;46541;49.894;10.886;2023-02-15T12:56:09;4.60;99.90
60701;DHT22;46541;49.894;10.886;2023-02-15T12:58:38;4.70;99.90
60701;DHT22;46541;49.894;10.886;2023-02-15T13:01:17;4.80;99.90
60701;DHT22;46541;49.894;10.886;2023-02-15T13:04:03;4.80;99.90
60701;DHT22;46541;49.894;10.886;2023-02-15T13:06:34;5.00;99.90
60701;DHT22;46541;49.894;10.886;2023-02-15T13:12:21;4.90;99.90
60701;DHT22;46541;49.894;10.886;2023-02-15T13:14:51;4.70;99.90
60701;DHT22;46541;49.894;10.886;2023-02-15T13:17:30;4.50;99.90
60701;DHT22;46541;49.894;10.886;2023-02-15T13:20:02;4.60;99.90
60701;DHT22;46541;49.894;10.886;2023-02-15T13:22:35;4.70;99.90
60701;DHT22;46541;49.894;10.886;2023-02-15T13:25:10;4.70;99.90
60701;DHT22;46541;49.894;10.886;2023-02-15T13:27:41;4.80;99.90
60701;DHT22;46541;49.894;10.886;2023-02-15T13:30:28;5.00;99.90
60701;DHT22;46541;49.894;10.886;2023-02-15T13:33:03;4.90;99.90
60701;DHT22;46541;49.894;10.886;2023-02-15T13:35:38;4.90;99.90
60701;DHT22;46541;49.894;10.886;2023-02-15T13:41:50;4.90;99.90
60701;DHT22;46541;49.894;10.886;2023-02-15T13:44:49;5.30;99.90
60701;DHT22;46541;49.894;10.886;2023-02-15T13:55:52;5.00;99.90
60701;DHT22;46541;49.894;10.886;2023-02-15T14:09:42;4.60;99.90
60701;DHT22;46541;49.894;10.886;2023-02-15T14:15:12;4.40;99.90
60701;DHT22;46541;49.894;10.886;2023-02-15T14:18:10;4.40;99.90
60701;DHT22;46541;49.894;10.886;2023-02-15T14:26:19;4.20;99.90
60701;DHT22;46541;49.894;10.886;2023-02-15T14:28:57;4.30;99.90
60701;DHT22;46541;49.894;10.886;2023-02-15T14:31:32;4.20;99.90
60701;DHT22;46541;49.894;10.886;2023-02-15T14:34:01;4.10;99.90
60701;DHT22;46541;49.894;10.886;2023-02-15T14:36:28;4.20;99.90
60701;DHT22;46541;49.894;10.886;2023-02-15T14:41:59;4.00;99.90
60701;DHT22;46541;49.894;10.886;2023-02-15T14:44:57;4.00;99.90
60701;DHT22;46541;49.894;10.886;2023-02-15T14:47:44;4.00;99.90
60701;DHT22;46541;49.894;10.886;2023-02-15T14:58:57;3.90;99.90
60701;DHT22;46541;49.894;10.886;2023-02-15T15:01:32;3.90;99.90
60701;DHT22;46541;49.894;10.886;2023-02-15T15:04:12;3.90;99.90
60701;DHT22;46541;49.894;10.886;2023-02-15T15:06:42;3.80;99.90
60701;DHT22;46541;49.894;10.886;2023-02-15T15:09:11;3.70;99.90
60701;DHT22;46541;49.894;10.886;2023-02-15T15:14:36;3.60;99.90
60701;DHT22;46541;49.894;10.886;2023-02-15T15:17:00;3.50;99.90
60701;DHT22;46541;49.894;10.886;2023-02-15T15:19:56;3.50;99.90
60701;DHT22;46541;49.894;10.886;2023-02-15T15:22:25;3.40;99.90
60701;DHT22;46541;49.894;10.886;2023-02-15T15:25:12;3.40;99.90
60701;DHT22;46541;49.894;10.886;2023-02-15T15:27:53;3.40;99.90
60701;DHT22;46541;49.894;10.886;2023-02-15T15:35:36;3.20;99.90
60701;DHT22;46541;49.894;10.886;2023-02-15T15:49:38;3.10;99.90
60701;DHT22;46541;49.894;10.886;2023-02-15T15:52:18;3.00;99.90
60701;DHT22;46541;49.894;10.886;2023-02-15T15:54:47;3.00;99.90
60701;DHT22;46541;49.894;10.886;2023-02-15T15:57:33;3.00;99.90
60701;DHT22;46541;49.894;10.886;2023-02-15T16:00:00;3.00;99.90
60701;DHT22;46541;49.894;10.886;2023-02-15T16:02:28;3.00;99.90
60701;DHT22;46541;49.894;10.886;2023-02-15T16:05:06;2.90;99.90
60701;DHT22;46541;49.894;10.886;2023-02-15T16:07:33;2.90;99.90
60701;DHT22;46541;49.894;10.886;2023-02-15T16:10:04;2.80;99.90
60701;DHT22;46541;49.894;10.886;2023-02-15T16:12:34;2.80;99.90
60701;DHT22;46541;49.894;10.886;2023-02-15T16:17:45;2.70;99.90
60701;DHT22;46541;49.894;10.886;2023-02-15T16:22:40;2.70;99.90
60701;DHT22;46541;49.894;10.886;2023-02-15T16:27:52;2.60;99.90
60701;DHT22;46541;49.894;10.886;2023-02-15T16:30:31;2.60;99.90
60701;DHT22;46541;49.894;10.886;2023-02-15T16:33:14;2.60;99.90
60701;DHT22;46541;49.894;10.886;2023-02-15T16:35:54;2.60;99.90
60701;DHT22;46541;49.894;10.886;2023-02-15T16:41:07;2.60;99.90
60701;DHT22;46541;49.894;10.886;2023-02-15T16:43:34;2.50;99.90
60701;DHT22;46541;49.894;10.886;2023-02-15T16:46:10;2.50;99.90
60701;DHT22;46541;49.894;10.886;2023-02-15T16:48:43;2.40;99.90
60701;DHT22;46541;49.894;10.886;2023-02-15T16:51:20;2.40;99.90
60701;DHT22;46541;49.894;10.886;2023-02-15T16:53:48;2.40;99.90
60701;DHT22;46541;49.894;10.886;2023-02-15T16:56:15;2.30;99.90
60701;DHT22;46541;49.894;10.886;2023-02-15T16:58:45;2.30;99.90
60701;DHT22;46541;49.894;10.886;2023-02-15T17:01:14;2.20;99.90
60701;DHT22;46541;49.894;10.886;2023-02-15T17:03:42;2.20;99.90
60701;DHT22;46541;49.894;10.886;2023-02-15T17:06:24;2.20;99.90
60701;DHT22;46541;49.894;10.886;2023-02-15T17:08:53;2.20;99.90
60701;DHT22;46541;49.894;10.886;2023-02-15T17:11:39;2.20;99.90
60701;DHT22;46541;49.894;10.886;2023-02-15T17:19:09;2.20;99.90
60701;DHT22;46541;49.894;10.886;2023-02-15T17:21:48;2.10;99.90
60701;DHT22;46541;49.894;10.886;2023-02-15T17:24:18;2.10;99.90
60701;DHT22;46541;49.894;10.886;2023-02-15T17:26:50;2.00;99.90
60701;DHT22;46541;49.894;10.886;2023-02-15T17:29:25;2.00;99.90
60701;DHT22;46541;49.894;10.886;2023-02-15T17:31:55;2.00;99.90
60701;DHT22;46541;49.894;10.886;2023-02-15T17:34:48;1.90;99.90
60701;DHT22;46541;49.894;10.886;2023-02-15T17:39:51;2.00;99.90
60701;DHT22;46541;49.894;10.886;2023-02-15T17:42:18;2.00;99.90
60701;DHT22;46541;49.894;10.886;2023-02-15T17:44:45;2.00;99.90
60701;DHT22;46541;49.894;10.886;2023-02-15T17:47:19;2.10;99.90
60701;DHT22;46541;49.894;10.886;2023-02-15T17:49:47;2.10;99.90
60701;DHT22;46541;49.894;10.886;2023-02-15T17:52:16;2.10;99.90
60701;DHT22;46541;49.894;10.886;2023-02-15T17:54:44;2.20;99.90
60701;DHT22;46541;49.894;10.886;2023-02-15T17:57:30;2.20;99.90
60701;DHT22;46541;49.894;10.886;2023-02-15T17:59:57;2.20;99.90
60701;DHT22;46541;49.894;10.886;2023-02-15T18:02:43;2.20;99.90
60701;DHT22;46541;49.894;10.886;2023-02-15T18:05:28;2.20;99.90
60701;DHT22;46541;49.894;10.886;2023-02-15T18:08:16;2.20;99.90
60701;DHT22;46541;49.894;10.886;2023-02-15T18:11:02;2.30;99.90
60701;DHT22;46541;49.894;10.886;2023-02-15T18:13:47;2.30;99.90
60701;DHT22;46541;49.894;10.886;2023-02-15T18:16:16;2.30;99.90
60701;DHT22;46541;49.894;10.886;2023-02-15T18:18:44;2.30;99.90
60701;DHT22;46541;49.894;10.886;2023-02-15T18:21:11;2.30;99.90
60701;DHT22;46541;49.894;10.886;2023-02-15T18:23:39;2.30;99.90
60701;DHT22;46541;49.894;10.886;2023-02-15T18:26:06;2.30;99.90
60701;DHT22;46541;49.894;10.886;2023-02-15T18:28:33;2.40;99.90
60701;DHT22;46541;49.894;10.886;2023-02-15T18:31:03;2.40;99.90
60701;DHT22;46541;49.894;10.886;2023-02-15T18:33:54;2.40;99.90
60701;DHT22;46541;49.894;10.886;2023-02-15T18:36:32;2.40;99.90
60701;DHT22;46541;49.894;10.886;2023-02-15T18:39:02;2.40;99.90
60701;DHT22;46541;49.894;10.886;2023-02-15T18:41:34;2.40;99.90
60701;DHT22;46541;49.894;10.886;2023-02-15T18:44:01;2.40;99.90
60701;DHT22;46541;49.894;10.886;2023-02-15T18:46:27;2.40;99.90
60701;DHT22;46541;49.894;10.886;2023-02-15T18:48:54;2.40;99.90
60701;DHT22;46541;49.894;10.886;2023-02-15T18:51:22;2.40;99.90
60701;DHT22;46541;49.894;10.886;2023-02-15T18:53:50;2.40;99.90
60701;DHT22;46541;49.894;10.886;2023-02-15T18:56:20;2.40;99.90
60701;DHT22;46541;49.894;10.886;2023-02-15T18:58:48;2.40;99.90
60701;DHT22;46541;49.894;10.886;2023-02-15T19:01:17;2.40;99.90
60701;DHT22;46541;49.894;10.886;2023-02-15T19:03:49;2.50;99.90